Terminal Aerodrome Forecast
Issued by NWS Quad Cities IA IL

Home | Current Version | Previous Version | Text Only | Print | Product List | Glossary On
Versions: 1 2 3 4 5 6 7 8 9 10 11 12 13 14 15 16 17 18 19 20 21 22 23 24 25 26 27 28 29 30 31 32 33 34 35
275
FTUS43 KDVN 172338
TAFDBQ
TAF
KDBQ 172338Z 1800/1824 09009KT P6SM BKN250
     FM181000 08011KT P6SM OVC035
     FM181400 07015G22KT 3SM FZRAPL BR VCTS OVC015CB
     FM181700 03015G22KT 1SM -SN BR OVC009
     FM181900 01015G20KT 2SM -SN BR OVC005=

USA.gov is the U.S. government's official web portal to all federal, state and local government web resources and services.